sensor_id;sensor_type;location;lat;lon;timestamp;P1;durP1;ratioP1;P2;durP2;ratioP2
71836;SDS011;59686;51.716;7.016;2024-03-02T00:01:42;1.93;;;1.60;;
71836;SDS011;59686;51.716;7.016;2024-03-02T00:04:08;2.23;;;1.70;;
71836;SDS011;59686;51.716;7.016;2024-03-02T00:06:33;2.20;;;1.70;;
71836;SDS011;59686;51.716;7.016;2024-03-02T00:08:59;1.80;;;1.33;;
71836;SDS011;59686;51.716;7.016;2024-03-02T00:11:25;2.23;;;1.53;;
71836;SDS011;59686;51.716;7.016;2024-03-02T00:13:53;3.00;;;1.57;;
71836;SDS011;59686;51.716;7.016;2024-03-02T00:16:19;2.43;;;1.50;;
71836;SDS011;59686;51.716;7.016;2024-03-02T00:18:45;2.47;;;1.63;;
71836;SDS011;59686;51.716;7.016;2024-03-02T00:21:11;4.07;;;1.60;;
71836;SDS011;59686;51.716;7.016;2024-03-02T00:23:39;1.90;;;1.70;;
71836;SDS011;59686;51.716;7.016;2024-03-02T00:26:05;3.30;;;1.40;;
71836;SDS011;59686;51.716;7.016;2024-03-02T00:33:52;1.60;;;1.50;;
71836;SDS011;59686;51.716;7.016;2024-03-02T00:36:26;2.30;;;1.50;;
71836;SDS011;59686;51.716;7.016;2024-03-02T00:38:53;1.60;;;1.50;;
71836;SDS011;59686;51.716;7.016;2024-03-02T00:44:00;2.33;;;1.80;;
71836;SDS011;59686;51.716;7.016;2024-03-02T00:49:03;1.60;;;1.43;;
71836;SDS011;59686;51.716;7.016;2024-03-02T00:51:31;1.97;;;1.73;;
71836;SDS011;59686;51.716;7.016;2024-03-02T00:53:59;3.33;;;1.70;;
71836;SDS011;59686;51.716;7.016;2024-03-02T00:56:32;2.13;;;1.70;;
71836;SDS011;59686;51.716;7.016;2024-03-02T00:58:59;3.73;;;1.70;;
71836;SDS011;59686;51.716;7.016;2024-03-02T01:01:25;1.70;;;1.60;;
71836;SDS011;59686;51.716;7.016;2024-03-02T01:03:51;2.83;;;1.93;;
71836;SDS011;59686;51.716;7.016;2024-03-02T01:06:17;2.57;;;1.60;;
71836;SDS011;59686;51.716;7.016;2024-03-02T01:08:44;4.30;;;1.70;;
71836;SDS011;59686;51.716;7.016;2024-03-02T01:11:11;3.87;;;1.80;;
71836;SDS011;59686;51.716;7.016;2024-03-02T01:13:37;3.07;;;1.93;;
71836;SDS011;59686;51.716;7.016;2024-03-02T01:16:02;2.43;;;1.87;;
71836;SDS011;59686;51.716;7.016;2024-03-02T01:18:29;2.67;;;1.97;;
71836;SDS011;59686;51.716;7.016;2024-03-02T01:20:55;2.77;;;1.80;;
71836;SDS011;59686;51.716;7.016;2024-03-02T01:23:22;4.20;;;1.90;;
71836;SDS011;59686;51.716;7.016;2024-03-02T01:25:48;1.73;;;1.57;;
71836;SDS011;59686;51.716;7.016;2024-03-02T01:28:14;2.50;;;1.90;;
71836;SDS011;59686;51.716;7.016;2024-03-02T01:30:40;1.90;;;1.70;;
71836;SDS011;59686;51.716;7.016;2024-03-02T01:33:06;4.37;;;1.57;;
71836;SDS011;59686;51.716;7.016;2024-03-02T01:35:32;3.33;;;1.73;;
71836;SDS011;59686;51.716;7.016;2024-03-02T01:37:58;2.43;;;1.60;;
71836;SDS011;59686;51.716;7.016;2024-03-02T01:40:23;2.30;;;1.70;;
71836;SDS011;59686;51.716;7.016;2024-03-02T01:42:51;2.40;;;1.70;;
71836;SDS011;59686;51.716;7.016;2024-03-02T01:45:19;2.63;;;1.60;;
71836;SDS011;59686;51.716;7.016;2024-03-02T01:47:44;2.50;;;1.80;;
71836;SDS011;59686;51.716;7.016;2024-03-02T01:50:13;1.60;;;1.40;;
71836;SDS011;59686;51.716;7.016;2024-03-02T01:52:39;2.17;;;1.53;;
71836;SDS011;59686;51.716;7.016;2024-03-02T01:55:05;2.03;;;1.50;;
71836;SDS011;59686;51.716;7.016;2024-03-02T01:57:32;2.00;;;1.40;;
71836;SDS011;59686;51.716;7.016;2024-03-02T01:59:59;1.83;;;1.50;;
71836;SDS011;59686;51.716;7.016;2024-03-02T02:02:25;2.30;;;1.63;;
71836;SDS011;59686;51.716;7.016;2024-03-02T02:04:51;1.70;;;1.50;;
71836;SDS011;59686;51.716;7.016;2024-03-02T02:07:17;2.13;;;1.63;;
71836;SDS011;59686;51.716;7.016;2024-03-02T02:09:43;2.03;;;1.60;;
71836;SDS011;59686;51.716;7.016;2024-03-02T02:12:09;3.00;;;1.70;;
71836;SDS011;59686;51.716;7.016;2024-03-02T02:14:36;2.10;;;1.47;;
71836;SDS011;59686;51.716;7.016;2024-03-02T02:17:02;2.40;;;1.60;;
71836;SDS011;59686;51.716;7.016;2024-03-02T02:19:27;2.60;;;1.47;;
71836;SDS011;59686;51.716;7.016;2024-03-02T02:21:53;1.97;;;1.40;;
71836;SDS011;59686;51.716;7.016;2024-03-02T02:24:19;1.60;;;1.50;;
71836;SDS011;59686;51.716;7.016;2024-03-02T02:26:45;1.43;;;1.10;;
71836;SDS011;59686;51.716;7.016;2024-03-02T02:29:11;2.13;;;1.17;;
71836;SDS011;59686;51.716;7.016;2024-03-02T02:31:40;1.57;;;1.33;;
71836;SDS011;59686;51.716;7.016;2024-03-02T02:34:06;3.63;;;1.30;;
71836;SDS011;59686;51.716;7.016;2024-03-02T02:36:32;2.97;;;1.43;;
71836;SDS011;59686;51.716;7.016;2024-03-02T02:39:00;2.43;;;1.40;;
71836;SDS011;59686;51.716;7.016;2024-03-02T02:41:32;2.43;;;1.40;;
71836;SDS011;59686;51.716;7.016;2024-03-02T02:43:57;4.50;;;1.50;;
71836;SDS011;59686;51.716;7.016;2024-03-02T02:46:23;2.03;;;1.20;;
71836;SDS011;59686;51.716;7.016;2024-03-02T02:48:49;3.80;;;1.40;;
71836;SDS011;59686;51.716;7.016;2024-03-02T02:51:16;2.07;;;1.40;;
71836;SDS011;59686;51.716;7.016;2024-03-02T02:53:42;2.10;;;1.20;;
71836;SDS011;59686;51.716;7.016;2024-03-02T02:56:08;2.47;;;1.40;;
71836;SDS011;59686;51.716;7.016;2024-03-02T02:58:35;2.90;;;1.57;;
71836;SDS011;59686;51.716;7.016;2024-03-02T03:01:01;2.00;;;1.30;;
71836;SDS011;59686;51.716;7.016;2024-03-02T03:03:26;1.67;;;1.20;;
71836;SDS011;59686;51.716;7.016;2024-03-02T03:05:52;2.23;;;1.30;;
71836;SDS011;59686;51.716;7.016;2024-03-02T03:08:18;2.03;;;1.30;;
71836;SDS011;59686;51.716;7.016;2024-03-02T03:10:44;2.13;;;1.67;;
71836;SDS011;59686;51.716;7.016;2024-03-02T03:13:09;1.67;;;1.20;;
71836;SDS011;59686;51.716;7.016;2024-03-02T03:15:35;2.03;;;1.10;;
71836;SDS011;59686;51.716;7.016;2024-03-02T03:18:04;2.03;;;1.13;;
71836;SDS011;59686;51.716;7.016;2024-03-02T03:20:30;2.50;;;1.30;;
71836;SDS011;59686;51.716;7.016;2024-03-02T03:22:56;1.53;;;1.20;;
71836;SDS011;59686;51.716;7.016;2024-03-02T03:25:22;3.80;;;1.33;;
71836;SDS011;59686;51.716;7.016;2024-03-02T03:27:48;1.90;;;1.20;;
71836;SDS011;59686;51.716;7.016;2024-03-02T03:30:14;1.93;;;1.30;;
71836;SDS011;59686;51.716;7.016;2024-03-02T03:32:40;1.67;;;1.17;;
71836;SDS011;59686;51.716;7.016;2024-03-02T03:35:06;2.17;;;1.40;;
71836;SDS011;59686;51.716;7.016;2024-03-02T03:37:32;1.93;;;1.30;;
71836;SDS011;59686;51.716;7.016;2024-03-02T03:39:58;2.00;;;1.33;;
71836;SDS011;59686;51.716;7.016;2024-03-02T03:42:24;2.00;;;1.20;;
71836;SDS011;59686;51.716;7.016;2024-03-02T03:44:51;1.13;;;1.03;;
71836;SDS011;59686;51.716;7.016;2024-03-02T03:47:16;2.33;;;1.30;;
71836;SDS011;59686;51.716;7.016;2024-03-02T03:49:42;1.67;;;1.20;;
71836;SDS011;59686;51.716;7.016;2024-03-02T03:52:08;1.93;;;1.10;;
71836;SDS011;59686;51.716;7.016;2024-03-02T03:54:34;3.23;;;1.60;;
71836;SDS011;59686;51.716;7.016;2024-03-02T03:56:59;2.47;;;1.40;;
71836;SDS011;59686;51.716;7.016;2024-03-02T03:59:25;1.83;;;1.43;;
71836;SDS011;59686;51.716;7.016;2024-03-02T04:01:50;1.90;;;1.23;;
71836;SDS011;59686;51.716;7.016;2024-03-02T04:04:16;1.80;;;1.30;;
71836;SDS011;59686;51.716;7.016;2024-03-02T04:06:42;3.33;;;1.53;;
71836;SDS011;59686;51.716;7.016;2024-03-02T04:09:07;2.07;;;1.30;;
71836;SDS011;59686;51.716;7.016;2024-03-02T04:11:33;2.07;;;1.37;;
71836;SDS011;59686;51.716;7.016;2024-03-02T04:13:59;1.93;;;1.43;;
71836;SDS011;59686;51.716;7.016;2024-03-02T04:16:24;2.30;;;1.53;;
71836;SDS011;59686;51.716;7.016;2024-03-02T04:18:50;2.00;;;1.20;;
71836;SDS011;59686;51.716;7.016;2024-03-02T04:21:16;2.03;;;1.53;;
71836;SDS011;59686;51.716;7.016;2024-03-02T04:23:41;2.57;;;1.20;;
71836;SDS011;59686;51.716;7.016;2024-03-02T04:26:07;2.83;;;1.40;;
71836;SDS011;59686;51.716;7.016;2024-03-02T04:28:33;2.27;;;1.50;;
71836;SDS011;59686;51.716;7.016;2024-03-02T04:30:58;4.93;;;1.50;;
71836;SDS011;59686;51.716;7.016;2024-03-02T04:33:24;3.43;;;1.60;;
71836;SDS011;59686;51.716;7.016;2024-03-02T04:35:50;2.03;;;1.50;;
71836;SDS011;59686;51.716;7.016;2024-03-02T04:38:15;2.20;;;1.30;;
71836;SDS011;59686;51.716;7.016;2024-03-02T04:40:41;2.00;;;1.50;;
71836;SDS011;59686;51.716;7.016;2024-03-02T04:43:07;1.57;;;1.23;;
71836;SDS011;59686;51.716;7.016;2024-03-02T04:45:34;2.73;;;1.70;;
71836;SDS011;59686;51.716;7.016;2024-03-02T04:48:01;1.50;;;1.17;;
71836;SDS011;59686;51.716;7.016;2024-03-02T04:50:26;2.37;;;1.40;;
71836;SDS011;59686;51.716;7.016;2024-03-02T04:52:52;2.30;;;1.50;;
71836;SDS011;59686;51.716;7.016;2024-03-02T04:55:18;2.03;;;1.37;;
71836;SDS011;59686;51.716;7.016;2024-03-02T04:57:52;1.80;;;1.10;;
71836;SDS011;59686;51.716;7.016;2024-03-02T05:00:20;1.70;;;1.50;;
71836;SDS011;59686;51.716;7.016;2024-03-02T05:02:46;2.27;;;1.50;;
71836;SDS011;59686;51.716;7.016;2024-03-02T05:05:11;3.33;;;1.70;;
71836;SDS011;59686;51.716;7.016;2024-03-02T05:07:37;3.23;;;1.57;;
71836;SDS011;59686;51.716;7.016;2024-03-02T05:10:03;2.40;;;1.50;;
71836;SDS011;59686;51.716;7.016;2024-03-02T05:12:29;2.10;;;1.70;;
71836;SDS011;59686;51.716;7.016;2024-03-02T05:15:10;1.87;;;1.30;;
71836;SDS011;59686;51.716;7.016;2024-03-02T05:17:36;2.37;;;1.47;;
71836;SDS011;59686;51.716;7.016;2024-03-02T05:20:06;2.97;;;1.60;;
71836;SDS011;59686;51.716;7.016;2024-03-02T05:22:36;2.00;;;1.60;;
71836;SDS011;59686;51.716;7.016;2024-03-02T05:25:05;1.77;;;1.30;;
71836;SDS011;59686;51.716;7.016;2024-03-02T05:27:32;2.43;;;1.50;;
71836;SDS011;59686;51.716;7.016;2024-03-02T05:29:58;2.03;;;1.40;;
71836;SDS011;59686;51.716;7.016;2024-03-02T05:32:24;2.07;;;1.37;;
71836;SDS011;59686;51.716;7.016;2024-03-02T05:34:50;2.23;;;1.40;;
71836;SDS011;59686;51.716;7.016;2024-03-02T05:37:16;1.83;;;1.43;;
71836;SDS011;59686;51.716;7.016;2024-03-02T05:39:42;1.93;;;1.33;;
71836;SDS011;59686;51.716;7.016;2024-03-02T05:42:10;2.00;;;1.23;;
71836;SDS011;59686;51.716;7.016;2024-03-02T05:44:36;2.57;;;1.57;;
71836;SDS011;59686;51.716;7.016;2024-03-02T05:47:02;2.13;;;1.43;;
71836;SDS011;59686;51.716;7.016;2024-03-02T05:49:28;2.07;;;1.20;;
71836;SDS011;59686;51.716;7.016;2024-03-02T05:51:54;4.13;;;1.50;;
71836;SDS011;59686;51.716;7.016;2024-03-02T05:54:20;2.07;;;1.50;;
71836;SDS011;59686;51.716;7.016;2024-03-02T05:56:46;1.30;;;1.20;;
71836;SDS011;59686;51.716;7.016;2024-03-02T05:59:11;2.83;;;1.40;;
71836;SDS011;59686;51.716;7.016;2024-03-02T06:01:44;2.33;;;1.30;;
71836;SDS011;59686;51.716;7.016;2024-03-02T06:04:12;1.53;;;1.13;;
71836;SDS011;59686;51.716;7.016;2024-03-02T06:06:38;1.50;;;1.20;;
71836;SDS011;59686;51.716;7.016;2024-03-02T06:09:07;2.47;;;1.50;;
71836;SDS011;59686;51.716;7.016;2024-03-02T06:11:33;1.73;;;1.20;;
71836;SDS011;59686;51.716;7.016;2024-03-02T06:14:03;1.87;;;1.37;;
71836;SDS011;59686;51.716;7.016;2024-03-02T06:16:29;1.73;;;1.37;;
71836;SDS011;59686;51.716;7.016;2024-03-02T06:18:55;1.50;;;1.30;;
71836;SDS011;59686;51.716;7.016;2024-03-02T06:21:23;1.80;;;1.20;;
71836;SDS011;59686;51.716;7.016;2024-03-02T06:23:49;4.23;;;1.37;;
71836;SDS011;59686;51.716;7.016;2024-03-02T06:26:15;2.30;;;1.50;;
71836;SDS011;59686;51.716;7.016;2024-03-02T06:28:40;2.07;;;1.20;;
71836;SDS011;59686;51.716;7.016;2024-03-02T06:31:06;3.10;;;1.43;;
71836;SDS011;59686;51.716;7.016;2024-03-02T06:33:32;1.47;;;1.10;;
71836;SDS011;59686;51.716;7.016;2024-03-02T06:35:57;1.50;;;1.23;;
71836;SDS011;59686;51.716;7.016;2024-03-02T06:38:23;2.63;;;1.40;;
71836;SDS011;59686;51.716;7.016;2024-03-02T06:40:49;2.43;;;1.53;;
71836;SDS011;59686;51.716;7.016;2024-03-02T06:43:14;3.13;;;1.70;;
71836;SDS011;59686;51.716;7.016;2024-03-02T06:45:40;2.37;;;1.43;;
71836;SDS011;59686;51.716;7.016;2024-03-02T06:48:06;1.73;;;1.33;;
71836;SDS011;59686;51.716;7.016;2024-03-02T06:50:32;2.20;;;1.50;;
71836;SDS011;59686;51.716;7.016;2024-03-02T06:52:57;1.70;;;1.30;;
71836;SDS011;59686;51.716;7.016;2024-03-02T06:55:23;2.00;;;1.53;;
71836;SDS011;59686;51.716;7.016;2024-03-02T06:57:52;1.73;;;1.37;;
71836;SDS011;59686;51.716;7.016;2024-03-02T07:00:18;2.10;;;1.30;;
71836;SDS011;59686;51.716;7.016;2024-03-02T07:02:45;1.73;;;1.50;;
71836;SDS011;59686;51.716;7.016;2024-03-02T07:05:12;2.90;;;1.40;;
71836;SDS011;59686;51.716;7.016;2024-03-02T07:07:38;2.13;;;1.60;;
71836;SDS011;59686;51.716;7.016;2024-03-02T07:10:04;2.90;;;1.50;;
71836;SDS011;59686;51.716;7.016;2024-03-02T07:12:30;1.73;;;1.30;;
71836;SDS011;59686;51.716;7.016;2024-03-02T07:14:56;2.23;;;1.53;;
71836;SDS011;59686;51.716;7.016;2024-03-02T07:17:28;2.47;;;1.47;;
71836;SDS011;59686;51.716;7.016;2024-03-02T07:19:54;2.20;;;1.57;;
71836;SDS011;59686;51.716;7.016;2024-03-02T07:22:20;3.23;;;2.00;;
71836;SDS011;59686;51.716;7.016;2024-03-02T07:24:47;2.07;;;1.63;;
71836;SDS011;59686;51.716;7.016;2024-03-02T07:27:13;2.97;;;2.10;;
71836;SDS011;59686;51.716;7.016;2024-03-02T07:29:39;2.77;;;1.93;;
71836;SDS011;59686;51.716;7.016;2024-03-02T07:32:05;5.53;;;2.10;;
71836;SDS011;59686;51.716;7.016;2024-03-02T07:34:32;3.57;;;2.20;;
71836;SDS011;59686;51.716;7.016;2024-03-02T07:36:57;4.10;;;2.20;;
71836;SDS011;59686;51.716;7.016;2024-03-02T07:39:23;3.10;;;2.07;;
71836;SDS011;59686;51.716;7.016;2024-03-02T07:41:49;5.67;;;2.40;;
71836;SDS011;59686;51.716;7.016;2024-03-02T07:44:15;4.73;;;2.87;;
71836;SDS011;59686;51.716;7.016;2024-03-02T07:46:50;6.47;;;3.00;;
71836;SDS011;59686;51.716;7.016;2024-03-02T07:49:16;3.57;;;2.50;;
71836;SDS011;59686;51.716;7.016;2024-03-02T07:51:41;3.80;;;2.70;;
71836;SDS011;59686;51.716;7.016;2024-03-02T07:54:08;3.93;;;2.80;;
71836;SDS011;59686;51.716;7.016;2024-03-02T07:56:34;4.70;;;3.10;;
71836;SDS011;59686;51.716;7.016;2024-03-02T07:59:01;4.97;;;3.07;;
71836;SDS011;59686;51.716;7.016;2024-03-02T08:01:33;6.37;;;3.93;;
71836;SDS011;59686;51.716;7.016;2024-03-02T08:03:59;6.90;;;4.00;;
71836;SDS011;59686;51.716;7.016;2024-03-02T08:06:26;7.90;;;4.27;;
71836;SDS011;59686;51.716;7.016;2024-03-02T08:08:56;7.53;;;3.67;;
71836;SDS011;59686;51.716;7.016;2024-03-02T08:11:25;6.10;;;3.60;;
71836;SDS011;59686;51.716;7.016;2024-03-02T08:13:52;6.30;;;3.63;;
71836;SDS011;59686;51.716;7.016;2024-03-02T08:16:20;5.13;;;3.13;;
71836;SDS011;59686;51.716;7.016;2024-03-02T08:18:50;4.10;;;3.20;;
71836;SDS011;59686;51.716;7.016;2024-03-02T08:21:16;5.10;;;3.07;;
71836;SDS011;59686;51.716;7.016;2024-03-02T08:23:42;4.73;;;2.70;;
71836;SDS011;59686;51.716;7.016;2024-03-02T08:26:08;4.40;;;2.47;;
71836;SDS011;59686;51.716;7.016;2024-03-02T08:28:35;3.93;;;2.57;;
71836;SDS011;59686;51.716;7.016;2024-03-02T08:31:02;4.50;;;2.87;;
71836;SDS011;59686;51.716;7.016;2024-03-02T08:33:28;5.00;;;2.70;;
71836;SDS011;59686;51.716;7.016;2024-03-02T08:35:54;4.03;;;2.77;;
71836;SDS011;59686;51.716;7.016;2024-03-02T08:38:20;4.83;;;2.57;;
71836;SDS011;59686;51.716;7.016;2024-03-02T08:40:46;3.40;;;2.50;;
71836;SDS011;59686;51.716;7.016;2024-03-02T08:43:12;2.73;;;2.17;;
71836;SDS011;59686;51.716;7.016;2024-03-02T08:45:38;3.13;;;2.00;;
71836;SDS011;59686;51.716;7.016;2024-03-02T08:48:05;2.87;;;2.00;;
71836;SDS011;59686;51.716;7.016;2024-03-02T08:50:33;2.57;;;1.97;;
71836;SDS011;59686;51.716;7.016;2024-03-02T08:52:59;3.20;;;2.00;;
71836;SDS011;59686;51.716;7.016;2024-03-02T08:55:25;2.13;;;1.70;;
71836;SDS011;59686;51.716;7.016;2024-03-02T08:57:50;2.47;;;1.80;;
71836;SDS011;59686;51.716;7.016;2024-03-02T09:00:16;2.93;;;1.90;;
71836;SDS011;59686;51.716;7.016;2024-03-02T09:02:45;5.80;;;2.00;;
71836;SDS011;59686;51.716;7.016;2024-03-02T09:05:11;3.57;;;2.03;;
71836;SDS011;59686;51.716;7.016;2024-03-02T09:07:37;2.50;;;1.87;;
71836;SDS011;59686;51.716;7.016;2024-03-02T09:10:07;2.83;;;1.70;;
71836;SDS011;59686;51.716;7.016;2024-03-02T09:12:33;4.13;;;2.03;;
71836;SDS011;59686;51.716;7.016;2024-03-02T09:15:02;2.57;;;1.80;;
71836;SDS011;59686;51.716;7.016;2024-03-02T09:17:29;2.83;;;2.00;;
71836;SDS011;59686;51.716;7.016;2024-03-02T09:19:55;2.50;;;1.80;;
71836;SDS011;59686;51.716;7.016;2024-03-02T09:22:20;2.17;;;1.70;;
71836;SDS011;59686;51.716;7.016;2024-03-02T09:24:46;2.20;;;1.80;;
71836;SDS011;59686;51.716;7.016;2024-03-02T09:27:12;3.20;;;2.10;;
71836;SDS011;59686;51.716;7.016;2024-03-02T09:29:37;3.70;;;2.10;;
71836;SDS011;59686;51.716;7.016;2024-03-02T09:32:04;3.37;;;1.87;;
71836;SDS011;59686;51.716;7.016;2024-03-02T09:34:31;3.47;;;1.87;;
71836;SDS011;59686;51.716;7.016;2024-03-02T09:36:57;2.80;;;1.90;;
71836;SDS011;59686;51.716;7.016;2024-03-02T09:39:23;2.20;;;1.60;;
71836;SDS011;59686;51.716;7.016;2024-03-02T09:41:50;3.43;;;1.77;;
71836;SDS011;59686;51.716;7.016;2024-03-02T09:44:16;2.20;;;1.70;;
71836;SDS011;59686;51.716;7.016;2024-03-02T09:46:41;2.20;;;1.60;;
71836;SDS011;59686;51.716;7.016;2024-03-02T09:49:09;4.73;;;2.00;;
71836;SDS011;59686;51.716;7.016;2024-03-02T09:51:36;2.30;;;1.70;;
71836;SDS011;59686;51.716;7.016;2024-03-02T09:54:02;2.23;;;1.70;;
71836;SDS011;59686;51.716;7.016;2024-03-02T09:56:28;2.43;;;1.93;;
71836;SDS011;59686;51.716;7.016;2024-03-02T09:58:54;3.43;;;1.87;;
71836;SDS011;59686;51.716;7.016;2024-03-02T10:01:19;4.10;;;2.00;;
71836;SDS011;59686;51.716;7.016;2024-03-02T10:03:45;2.90;;;1.80;;
71836;SDS011;59686;51.716;7.016;2024-03-02T10:08:47;2.83;;;1.80;;
71836;SDS011;59686;51.716;7.016;2024-03-02T10:11:29;3.00;;;1.80;;
71836;SDS011;59686;51.716;7.016;2024-03-02T10:14:12;2.47;;;1.60;;
71836;SDS011;59686;51.716;7.016;2024-03-02T10:16:39;3.00;;;1.83;;
71836;SDS011;59686;51.716;7.016;2024-03-02T10:19:22;2.47;;;1.80;;
71836;SDS011;59686;51.716;7.016;2024-03-02T10:21:53;3.33;;;1.60;;
71836;SDS011;59686;51.716;7.016;2024-03-02T10:24:19;2.23;;;1.53;;
71836;SDS011;59686;51.716;7.016;2024-03-02T10:26:46;2.53;;;1.60;;
71836;SDS011;59686;51.716;7.016;2024-03-02T10:29:12;1.80;;;1.47;;
71836;SDS011;59686;51.716;7.016;2024-03-02T10:31:38;3.93;;;1.70;;
71836;SDS011;59686;51.716;7.016;2024-03-02T10:34:09;2.20;;;1.53;;
71836;SDS011;59686;51.716;7.016;2024-03-02T10:36:35;1.77;;;1.60;;
71836;SDS011;59686;51.716;7.016;2024-03-02T10:39:05;2.17;;;1.57;;
71836;SDS011;59686;51.716;7.016;2024-03-02T10:41:33;2.20;;;1.50;;
71836;SDS011;59686;51.716;7.016;2024-03-02T10:44:03;1.83;;;1.43;;
71836;SDS011;59686;51.716;7.016;2024-03-02T10:46:35;2.90;;;1.60;;
71836;SDS011;59686;51.716;7.016;2024-03-02T10:49:02;3.43;;;1.50;;
71836;SDS011;59686;51.716;7.016;2024-03-02T10:51:29;10.20;;;1.70;;
71836;SDS011;59686;51.716;7.016;2024-03-02T10:54:01;3.37;;;1.60;;
71836;SDS011;59686;51.716;7.016;2024-03-02T10:56:38;2.70;;;1.50;;
71836;SDS011;59686;51.716;7.016;2024-03-02T11:01:56;2.70;;;1.77;;
71836;SDS011;59686;51.716;7.016;2024-03-02T11:04:27;2.50;;;1.70;;
71836;SDS011;59686;51.716;7.016;2024-03-02T11:07:15;3.73;;;1.57;;
71836;SDS011;59686;51.716;7.016;2024-03-02T11:09:42;3.87;;;1.50;;
71836;SDS011;59686;51.716;7.016;2024-03-02T11:14:59;3.30;;;2.13;;
71836;SDS011;59686;51.716;7.016;2024-03-02T11:17:26;3.20;;;1.80;;
71836;SDS011;59686;51.716;7.016;2024-03-02T11:19:52;3.60;;;1.70;;
71836;SDS011;59686;51.716;7.016;2024-03-02T11:22:18;4.17;;;1.87;;
71836;SDS011;59686;51.716;7.016;2024-03-02T11:24:48;6.90;;;1.50;;
71836;SDS011;59686;51.716;7.016;2024-03-02T11:27:15;7.90;;;1.97;;
71836;SDS011;59686;51.716;7.016;2024-03-02T11:32:57;1.57;;;1.20;;
71836;SDS011;59686;51.716;7.016;2024-03-02T11:35:33;11.90;;;2.40;;
71836;SDS011;59686;51.716;7.016;2024-03-02T11:38:02;9.00;;;1.83;;
71836;SDS011;59686;51.716;7.016;2024-03-02T11:40:29;6.50;;;1.70;;
71836;SDS011;59686;51.716;7.016;2024-03-02T11:42:55;9.60;;;1.77;;
71836;SDS011;59686;51.716;7.016;2024-03-02T11:45:25;7.33;;;1.60;;
71836;SDS011;59686;51.716;7.016;2024-03-02T11:47:55;3.37;;;1.50;;
71836;SDS011;59686;51.716;7.016;2024-03-02T11:50:33;2.00;;;1.30;;
71836;SDS011;59686;51.716;7.016;2024-03-02T11:53:05;5.53;;;1.63;;
71836;SDS011;59686;51.716;7.016;2024-03-02T11:55:31;3.20;;;1.50;;
71836;SDS011;59686;51.716;7.016;2024-03-02T11:58:01;2.90;;;1.50;;
71836;SDS011;59686;51.716;7.016;2024-03-02T12:00:28;3.63;;;1.77;;
71836;SDS011;59686;51.716;7.016;2024-03-02T12:03:01;4.15;;;1.67;;
71836;SDS011;59686;51.716;7.016;2024-03-02T12:05:31;3.13;;;1.70;;
71836;SDS011;59686;51.716;7.016;2024-03-02T12:07:58;2.05;;;1.30;;
71836;SDS011;59686;51.716;7.016;2024-03-02T12:10:25;2.20;;;1.40;;
71836;SDS011;59686;51.716;7.016;2024-03-02T12:12:58;1.60;;;1.37;;
71836;SDS011;59686;51.716;7.016;2024-03-02T12:15:31;2.88;;;1.67;;
71836;SDS011;59686;51.716;7.016;2024-03-02T12:17:59;4.88;;;1.42;;
71836;SDS011;59686;51.716;7.016;2024-03-02T12:20:26;1.88;;;1.10;;
71836;SDS011;59686;51.716;7.016;2024-03-02T12:22:55;16.70;;;2.83;;
71836;SDS011;59686;51.716;7.016;2024-03-02T12:25:23;7.97;;;1.98;;
71836;SDS011;59686;51.716;7.016;2024-03-02T12:27:49;3.80;;;1.40;;
71836;SDS011;59686;51.716;7.016;2024-03-02T12:30:16;4.57;;;1.48;;
71836;SDS011;59686;51.716;7.016;2024-03-02T12:32:43;2.60;;;1.33;;
71836;SDS011;59686;51.716;7.016;2024-03-02T12:35:12;5.77;;;1.50;;
71836;SDS011;59686;51.716;7.016;2024-03-02T12:37:44;3.97;;;1.73;;
71836;SDS011;59686;51.716;7.016;2024-03-02T12:40:12;4.15;;;1.52;;
71836;SDS011;59686;51.716;7.016;2024-03-02T12:42:38;7.05;;;1.60;;
71836;SDS011;59686;51.716;7.016;2024-03-02T12:45:05;5.40;;;2.13;;
71836;SDS011;59686;51.716;7.016;2024-03-02T12:47:31;5.90;;;1.33;;
71836;SDS011;59686;51.716;7.016;2024-03-02T12:49:58;3.72;;;1.40;;
71836;SDS011;59686;51.716;7.016;2024-03-02T12:52:24;2.00;;;1.40;;
71836;SDS011;59686;51.716;7.016;2024-03-02T12:54:50;1.48;;;1.13;;
71836;SDS011;59686;51.716;7.016;2024-03-02T12:57:20;9.50;;;1.40;;
71836;SDS011;59686;51.716;7.016;2024-03-02T12:59:46;5.95;;;1.33;;
71836;SDS011;59686;51.716;7.016;2024-03-02T13:02:19;2.47;;;1.13;;
71836;SDS011;59686;51.716;7.016;2024-03-02T13:04:52;3.72;;;1.10;;
71836;SDS011;59686;51.716;7.016;2024-03-02T13:07:19;3.83;;;1.02;;
71836;SDS011;59686;51.716;7.016;2024-03-02T13:09:46;3.17;;;1.20;;
71836;SDS011;59686;51.716;7.016;2024-03-02T13:12:12;1.98;;;1.10;;
71836;SDS011;59686;51.716;7.016;2024-03-02T13:14:41;2.65;;;1.10;;
71836;SDS011;59686;51.716;7.016;2024-03-02T13:17:07;1.75;;;1.30;;
71836;SDS011;59686;51.716;7.016;2024-03-02T13:19:34;5.93;;;1.98;;
71836;SDS011;59686;51.716;7.016;2024-03-02T13:22:00;4.82;;;1.60;;
71836;SDS011;59686;51.716;7.016;2024-03-02T13:24:28;4.03;;;1.58;;
71836;SDS011;59686;51.716;7.016;2024-03-02T13:26:55;3.92;;;1.52;;
71836;SDS011;59686;51.716;7.016;2024-03-02T13:29:23;3.05;;;1.10;;
71836;SDS011;59686;51.716;7.016;2024-03-02T13:31:49;2.70;;;1.10;;
71836;SDS011;59686;51.716;7.016;2024-03-02T13:34:15;3.22;;;1.52;;
71836;SDS011;59686;51.716;7.016;2024-03-02T13:36:41;3.58;;;1.20;;
71836;SDS011;59686;51.716;7.016;2024-03-02T13:39:06;2.90;;;1.20;;
71836;SDS011;59686;51.716;7.016;2024-03-02T13:41:35;1.10;;;1.00;;
71836;SDS011;59686;51.716;7.016;2024-03-02T13:44:01;2.05;;;1.10;;
71836;SDS011;59686;51.716;7.016;2024-03-02T13:46:27;1.52;;;1.10;;
71836;SDS011;59686;51.716;7.016;2024-03-02T13:48:53;2.47;;;1.30;;
71836;SDS011;59686;51.716;7.016;2024-03-02T13:51:19;1.25;;;1.10;;
71836;SDS011;59686;51.716;7.016;2024-03-02T13:53:45;1.10;;;0.90;;
71836;SDS011;59686;51.716;7.016;2024-03-02T13:56:11;2.10;;;1.08;;
71836;SDS011;59686;51.716;7.016;2024-03-02T13:58:37;2.15;;;1.20;;
71836;SDS011;59686;51.716;7.016;2024-03-02T14:01:03;1.48;;;1.17;;
71836;SDS011;59686;51.716;7.016;2024-03-02T14:03:30;1.63;;;1.30;;
71836;SDS011;59686;51.716;7.016;2024-03-02T14:05:56;1.45;;;1.10;;
71836;SDS011;59686;51.716;7.016;2024-03-02T14:08:22;1.55;;;0.90;;
71836;SDS011;59686;51.716;7.016;2024-03-02T14:10:48;1.45;;;1.10;;
71836;SDS011;59686;51.716;7.016;2024-03-02T14:13:14;2.00;;;1.25;;
71836;SDS011;59686;51.716;7.016;2024-03-02T14:15:41;2.45;;;0.90;;
71836;SDS011;59686;51.716;7.016;2024-03-02T14:18:06;1.00;;;0.82;;
71836;SDS011;59686;51.716;7.016;2024-03-02T14:20:35;1.50;;;1.17;;
71836;SDS011;59686;51.716;7.016;2024-03-02T14:23:00;2.15;;;1.10;;
71836;SDS011;59686;51.716;7.016;2024-03-02T14:25:27;1.42;;;1.10;;
71836;SDS011;59686;51.716;7.016;2024-03-02T14:27:56;1.10;;;1.00;;
71836;SDS011;59686;51.716;7.016;2024-03-02T14:30:23;1.92;;;1.10;;
71836;SDS011;59686;51.716;7.016;2024-03-02T14:32:49;1.33;;;1.00;;
71836;SDS011;59686;51.716;7.016;2024-03-02T14:35:16;2.28;;;1.00;;
71836;SDS011;59686;51.716;7.016;2024-03-02T14:37:41;1.83;;;1.10;;
71836;SDS011;59686;51.716;7.016;2024-03-02T14:40:08;1.92;;;1.00;;
71836;SDS011;59686;51.716;7.016;2024-03-02T14:42:35;1.33;;;1.20;;
71836;SDS011;59686;51.716;7.016;2024-03-02T14:45:01;2.30;;;1.63;;
71836;SDS011;59686;51.716;7.016;2024-03-02T14:47:29;1.50;;;1.35;;
71836;SDS011;59686;51.716;7.016;2024-03-02T14:49:59;2.13;;;1.88;;
71836;SDS011;59686;51.716;7.016;2024-03-02T14:52:25;2.20;;;1.50;;
71836;SDS011;59686;51.716;7.016;2024-03-02T14:54:51;1.25;;;1.10;;
71836;SDS011;59686;51.716;7.016;2024-03-02T14:57:17;1.00;;;0.90;;
71836;SDS011;59686;51.716;7.016;2024-03-02T14:59:43;1.17;;;1.00;;
71836;SDS011;59686;51.716;7.016;2024-03-02T15:02:09;1.00;;;0.90;;
71836;SDS011;59686;51.716;7.016;2024-03-02T15:04:34;2.25;;;0.90;;
71836;SDS011;59686;51.716;7.016;2024-03-02T15:07:00;1.52;;;0.88;;
71836;SDS011;59686;51.716;7.016;2024-03-02T15:09:26;0.88;;;0.88;;